createdAt,value
2018-01-12T00:01:37.253Z,5.60
2018-01-12T00:04:05.543Z,5.60
2018-01-12T00:06:33.804Z,5.60
2018-01-12T00:09:04.095Z,5.60
2018-01-12T00:11:32.375Z,5.60
2018-01-12T00:14:00.179Z,5.60
2018-01-12T00:16:29.089Z,5.70
2018-01-12T00:18:58.592Z,5.70
2018-01-12T00:21:26.850Z,5.70
2018-01-12T00:23:55.131Z,5.70
2018-01-12T00:26:23.417Z,5.60
2018-01-12T00:28:51.675Z,5.80
2018-01-12T00:31:19.963Z,5.80
2018-01-12T00:34:01.914Z,5.70
2018-01-12T00:36:30.175Z,5.70
2018-01-12T00:38:59.111Z,5.80
2018-01-12T00:41:28.607Z,5.80
2018-01-12T00:43:56.903Z,5.70
2018-01-12T00:46:25.175Z,5.70
2018-01-12T00:48:53.476Z,5.40
2018-01-12T00:51:21.734Z,5.20
2018-01-12T00:53:50.048Z,5.10
2018-01-12T00:56:25.066Z,5.00
2018-01-12T00:58:53.360Z,5.00
2018-01-12T01:01:21.679Z,4.90
2018-01-12T01:03:49.944Z,5.10
2018-01-12T01:06:21.567Z,5.10
2018-01-12T01:08:49.830Z,5.10
2018-01-12T01:11:32.064Z,5.00
2018-01-12T01:14:00.318Z,5.00
2018-01-12T01:16:28.499Z,5.00
2018-01-12T01:19:00.450Z,5.00
2018-01-12T01:21:29.387Z,5.00
2018-01-12T01:23:56.898Z,5.00
2018-01-12T01:26:25.159Z,5.00
2018-01-12T01:28:53.448Z,5.00
2018-01-12T01:31:21.702Z,5.20
2018-01-12T01:33:53.623Z,5.10
2018-01-12T01:36:21.918Z,4.90
2018-01-12T01:38:50.175Z,4.70
2018-01-12T01:41:18.468Z,4.70
2018-01-12T01:43:46.737Z,4.70
2018-01-12T01:46:15.022Z,4.80
2018-01-12T01:48:43.274Z,5.00
2018-01-12T01:51:11.563Z,4.90
2018-01-12T01:53:39.818Z,4.90
2018-01-12T01:56:21.590Z,4.80
2018-01-12T01:58:49.878Z,4.90
2018-01-12T02:01:24.186Z,5.00
2018-01-12T02:03:52.469Z,5.00
2018-01-12T02:06:20.732Z,5.00
2018-01-12T02:08:49.018Z,5.10
2018-01-12T02:11:17.427Z,5.20
2018-01-12T02:13:45.683Z,4.90
2018-01-12T02:16:32.893Z,4.90
2018-01-12T02:19:01.164Z,4.90
2018-01-12T02:21:30.039Z,5.00
2018-01-12T02:23:59.062Z,5.10
2018-01-12T02:26:28.038Z,5.10
2018-01-12T02:28:56.380Z,5.10
2018-01-12T02:31:24.615Z,5.10
2018-01-12T02:33:52.878Z,5.20
2018-01-12T02:36:21.157Z,5.40
2018-01-12T02:38:49.435Z,5.40
2018-01-12T02:41:17.728Z,5.30
2018-01-12T02:43:46.013Z,5.30
2018-01-12T02:46:14.271Z,5.20
2018-01-12T02:48:46.413Z,5.10
2018-01-12T02:51:14.682Z,5.10
2018-01-12T02:53:42.972Z,5.20
2018-01-12T02:56:11.223Z,5.20
2018-01-12T02:58:39.506Z,5.10
2018-01-12T03:01:07.773Z,5.30
2018-01-12T03:03:37.019Z,5.40
2018-01-12T03:06:05.269Z,5.30
2018-01-12T03:08:33.527Z,5.30
2018-01-12T03:11:01.810Z,5.30
2018-01-12T03:13:47.272Z,5.30
2018-01-12T03:16:15.558Z,5.30
2018-01-12T03:18:43.809Z,5.20
2018-01-12T03:21:18.146Z,5.30
2018-01-12T03:23:46.413Z,5.10
2018-01-12T03:26:14.698Z,5.00
2018-01-12T03:28:42.972Z,5.00
2018-01-12T03:31:11.269Z,5.10
2018-01-12T03:33:39.544Z,5.10
2018-01-12T03:36:07.821Z,5.20
2018-01-12T03:38:42.145Z,5.10
2018-01-12T03:41:10.400Z,5.00
2018-01-12T03:43:38.694Z,4.90
2018-01-12T03:46:06.966Z,4.80
2018-01-12T03:48:35.249Z,4.80
2018-01-12T03:51:02.734Z,4.70
2018-01-12T03:53:31.028Z,4.90
2018-01-12T03:56:00.129Z,5.00
2018-01-12T03:58:29.139Z,5.10
2018-01-12T04:00:58.111Z,5.00
2018-01-12T04:03:26.411Z,5.30
2018-01-12T04:05:54.698Z,5.10
2018-01-12T04:08:22.966Z,5.10
2018-01-12T04:10:51.250Z,4.90
2018-01-12T04:13:19.524Z,4.80
2018-01-12T04:15:47.817Z,5.00
2018-01-12T04:18:26.656Z,5.00
2018-01-12T04:20:54.945Z,5.20
2018-01-12T04:23:22.440Z,5.10
2018-01-12T04:25:50.754Z,4.90
2018-01-12T04:28:19.024Z,4.80
2018-01-12T04:30:47.300Z,4.80
2018-01-12T04:33:15.594Z,4.90
2018-01-12T04:35:43.864Z,4.90
2018-01-12T04:38:12.185Z,4.80
2018-01-12T04:40:40.430Z,4.80
2018-01-12T04:43:08.722Z,4.90
2018-01-12T04:45:37.029Z,4.90
2018-01-12T04:48:05.296Z,4.90
2018-01-12T04:50:33.599Z,5.10
2018-01-12T04:53:01.872Z,5.10
2018-01-12T04:55:38.600Z,5.00
2018-01-12T04:58:06.866Z,4.90
2018-01-12T05:00:35.140Z,4.80
2018-01-12T05:03:03.443Z,4.80
2018-01-12T05:05:31.721Z,4.90
2018-01-12T05:08:00.195Z,4.80
2018-01-12T05:10:28.801Z,4.80
2018-01-12T05:12:57.059Z,4.90
2018-01-12T05:15:25.362Z,4.90
2018-01-12T05:17:53.674Z,4.90
2018-01-12T05:20:21.980Z,4.90
2018-01-12T05:22:50.306Z,4.90
2018-01-12T05:25:20.506Z,4.90
2018-01-12T05:27:48.820Z,4.90
2018-01-12T05:30:17.090Z,4.90
2018-01-12T05:32:45.354Z,5.00
2018-01-12T05:35:13.643Z,5.00
2018-01-12T05:40:39.073Z,4.90
2018-01-12T05:43:07.363Z,5.00
2018-01-12T05:45:35.656Z,4.90
2018-01-12T05:48:03.947Z,4.90
2018-01-12T05:50:32.210Z,4.80
2018-01-12T05:53:00.497Z,4.80
2018-01-12T05:55:29.209Z,4.80
2018-01-12T05:57:58.188Z,4.70
2018-01-12T06:00:26.470Z,4.60
2018-01-12T06:06:05.505Z,4.60
2018-01-12T06:08:33.901Z,4.60
2018-01-12T06:11:07.514Z,4.70
2018-01-12T06:13:35.836Z,4.70
2018-01-12T06:19:03.206Z,4.80
2018-01-12T06:21:31.470Z,4.80
2018-01-12T06:24:00.133Z,4.90
2018-01-12T06:26:29.003Z,5.20
2018-01-12T06:28:58.413Z,5.30
2018-01-12T06:31:26.688Z,5.20
2018-01-12T06:33:54.998Z,5.10
2018-01-12T06:36:23.268Z,5.10
2018-01-12T06:38:51.531Z,5.00
2018-01-12T06:41:19.814Z,4.90
2018-01-12T06:44:05.326Z,4.90
2018-01-12T06:46:33.633Z,4.80
2018-01-12T06:49:01.922Z,4.90
2018-01-12T06:51:40.229Z,4.90
2018-01-12T06:54:08.514Z,4.80
2018-01-12T06:56:36.792Z,4.90
2018-01-12T06:59:05.087Z,4.90
2018-01-12T07:01:33.333Z,4.90
2018-01-12T07:04:01.627Z,4.90
2018-01-12T07:06:30.108Z,4.90
2018-01-12T07:08:59.134Z,5.00
2018-01-12T07:11:28.094Z,4.90
2018-01-12T07:13:56.381Z,5.00
2018-01-12T07:16:24.646Z,5.00
2018-01-12T07:18:52.935Z,5.00
2018-01-12T07:21:33.030Z,5.00
2018-01-12T07:24:01.286Z,5.00
2018-01-12T07:26:39.432Z,5.00
2018-01-12T07:29:07.689Z,5.00
2018-01-12T07:31:36.924Z,4.90
2018-01-12T07:34:05.194Z,4.80
2018-01-12T07:36:33.459Z,4.80
2018-01-12T07:39:01.746Z,4.70
2018-01-12T07:41:30.156Z,4.80
2018-01-12T07:43:58.966Z,4.80
2018-01-12T07:46:27.257Z,5.00
2018-01-12T07:48:55.510Z,5.00
2018-01-12T07:51:23.789Z,4.90
2018-01-12T07:53:52.054Z,4.90
2018-01-12T07:56:20.346Z,5.10
2018-01-12T07:58:48.629Z,5.20
2018-01-12T08:01:22.662Z,5.10
2018-01-12T08:06:44.717Z,5.20
2018-01-12T08:09:12.997Z,5.00
2018-01-12T08:11:41.292Z,5.00
2018-01-12T08:14:09.589Z,5.00
2018-01-12T08:16:37.845Z,4.80
2018-01-12T08:19:09.593Z,4.80
2018-01-12T08:21:37.865Z,4.90
2018-01-12T08:24:08.181Z,4.80
2018-01-12T08:26:36.436Z,4.80
2018-01-12T08:29:18.461Z,4.80
2018-01-12T08:31:46.767Z,4.70
2018-01-12T08:34:15.026Z,4.60
2018-01-12T08:36:43.296Z,4.60
2018-01-12T08:39:11.577Z,4.70
2018-01-12T08:41:39.871Z,4.60
2018-01-12T08:44:13.425Z,4.70
2018-01-12T08:46:41.670Z,4.80
2018-01-12T08:49:09.980Z,4.70
2018-01-12T08:51:38.254Z,4.60
2018-01-12T08:54:06.539Z,4.50
2018-01-12T08:56:34.814Z,4.70
2018-01-12T08:59:03.066Z,4.60
2018-01-12T09:01:31.354Z,4.60
2018-01-12T09:04:00.072Z,4.70
2018-01-12T09:06:29.257Z,4.90
2018-01-12T09:08:58.282Z,5.00
2018-01-12T09:11:26.576Z,4.90
2018-01-12T09:13:58.429Z,5.10
2018-01-12T09:16:28.011Z,5.00
2018-01-12T09:19:08.158Z,4.80
2018-01-12T09:21:36.449Z,4.90
2018-01-12T09:24:16.489Z,5.00
2018-01-12T09:26:44.777Z,4.90
2018-01-12T09:29:13.031Z,4.90
2018-01-12T09:31:43.118Z,4.90
2018-01-12T09:34:23.260Z,4.90
2018-01-12T09:36:51.549Z,5.10
2018-01-12T09:39:31.562Z,5.10
2018-01-12T09:42:00.173Z,5.00
2018-01-12T09:44:28.778Z,5.00
2018-01-12T09:47:17.759Z,5.00
2018-01-12T09:49:47.725Z,5.00
2018-01-12T09:52:16.010Z,4.90
2018-01-12T09:54:44.266Z,5.00
2018-01-12T09:57:12.553Z,4.90
2018-01-12T09:59:43.425Z,5.20
2018-01-12T10:02:11.703Z,5.20
2018-01-12T10:04:39.997Z,5.30
2018-01-12T10:07:19.855Z,5.30
2018-01-12T10:09:48.193Z,5.30
2018-01-12T10:12:16.406Z,5.20
2018-01-12T10:14:43.925Z,5.20
2018-01-12T10:17:12.195Z,5.20
2018-01-12T10:20:01.922Z,5.10
2018-01-12T10:22:30.180Z,5.10
2018-01-12T10:24:58.872Z,5.10
2018-01-12T10:27:27.157Z,5.10
2018-01-12T10:29:58.034Z,5.10
2018-01-12T10:32:38.171Z,5.20
2018-01-12T10:35:18.230Z,5.20
2018-01-12T10:37:46.493Z,5.20
2018-01-12T10:40:26.773Z,5.30
2018-01-12T10:42:55.034Z,5.20
2018-01-12T10:45:24.101Z,5.20
2018-01-12T10:47:52.353Z,5.20
2018-01-12T10:50:23.397Z,5.20
2018-01-12T10:52:51.641Z,5.30
2018-01-12T10:55:22.936Z,5.30
2018-01-12T10:57:51.193Z,5.30
2018-01-12T11:00:25.277Z,5.40
2018-01-12T11:02:53.544Z,5.40
2018-01-12T11:05:21.814Z,5.40
2018-01-12T11:07:50.092Z,5.40
2018-01-12T11:10:18.365Z,5.50
2018-01-12T11:12:46.633Z,5.40
2018-01-12T11:15:14.917Z,5.40
2018-01-12T11:17:43.213Z,5.30
2018-01-12T11:20:11.461Z,5.40
2018-01-12T11:22:39.706Z,5.40
2018-01-12T11:25:07.989Z,5.50
2018-01-12T11:27:36.311Z,5.40
2018-01-12T11:30:04.561Z,5.40
2018-01-12T11:32:32.854Z,5.50
2018-01-12T11:35:01.137Z,5.50
2018-01-12T11:37:30.089Z,5.40
2018-01-12T11:39:59.109Z,5.40
2018-01-12T11:42:28.126Z,5.30
2018-01-12T11:44:56.396Z,5.30
2018-01-12T11:47:28.652Z,5.40
2018-01-12T11:49:56.910Z,5.30
2018-01-12T11:52:25.171Z,5.20
2018-01-12T11:54:53.454Z,5.30
2018-01-12T11:57:21.743Z,5.40
2018-01-12T12:00:12.929Z,5.40
2018-01-12T12:02:41.244Z,5.30
2018-01-12T12:05:09.519Z,5.40
2018-01-12T12:07:37.827Z,5.50
2018-01-12T12:10:06.093Z,5.50
2018-01-12T12:12:41.444Z,5.50
2018-01-12T12:15:09.712Z,5.60
2018-01-12T12:17:37.982Z,5.80
2018-01-12T12:20:06.262Z,5.60
2018-01-12T12:22:34.569Z,5.80
2018-01-12T12:25:02.875Z,5.80
2018-01-12T12:27:31.137Z,5.90
2018-01-12T12:29:59.989Z,5.90
2018-01-12T12:32:29.145Z,5.60
2018-01-12T12:34:58.188Z,5.50
2018-01-12T12:37:26.456Z,5.50
2018-01-12T12:39:54.750Z,5.50
2018-01-12T12:42:23.060Z,5.50
2018-01-12T12:44:51.324Z,5.60
2018-01-12T12:47:18.827Z,5.50
2018-01-12T12:49:47.112Z,5.70
2018-01-12T12:52:15.369Z,5.70
2018-01-12T12:54:43.657Z,5.70
2018-01-12T12:57:11.909Z,5.70
2018-01-12T13:02:53.981Z,5.70
2018-01-12T13:05:22.246Z,5.60
2018-01-12T13:07:50.530Z,5.70
2018-01-12T13:10:18.823Z,5.70
2018-01-12T13:12:46.332Z,5.70
2018-01-12T13:15:14.635Z,5.80
2018-01-12T13:17:42.888Z,5.80
2018-01-12T13:20:11.166Z,5.90
2018-01-12T13:22:39.413Z,6.00
2018-01-12T13:25:07.813Z,5.90
2018-01-12T13:27:53.084Z,5.90
2018-01-12T13:30:21.364Z,5.90
2018-01-12T13:32:49.616Z,5.90
2018-01-12T13:35:17.919Z,5.90
2018-01-12T13:37:46.228Z,5.90
2018-01-12T13:40:14.477Z,5.90
2018-01-12T13:42:42.782Z,5.90
2018-01-12T13:45:11.041Z,5.90
2018-01-12T13:47:39.342Z,5.90
2018-01-12T13:50:07.641Z,5.90
2018-01-12T13:52:46.377Z,5.90
2018-01-12T13:55:14.684Z,6.00
2018-01-12T13:57:42.948Z,6.00
2018-01-12T14:00:11.266Z,5.90
2018-01-12T14:02:39.513Z,6.00
2018-01-12T14:05:07.766Z,6.00
2018-01-12T14:07:36.045Z,6.00
2018-01-12T14:10:04.330Z,6.00
2018-01-12T14:12:32.594Z,6.00
2018-01-12T14:15:00.854Z,6.00
2018-01-12T14:17:35.793Z,6.00
2018-01-12T14:20:04.069Z,6.00
2018-01-12T14:22:32.319Z,6.10
2018-01-12T14:25:00.600Z,6.10
2018-01-12T14:27:29.636Z,6.00
2018-01-12T14:29:58.650Z,6.00
2018-01-12T14:32:47.636Z,6.00
2018-01-12T14:35:15.897Z,6.10
2018-01-12T14:37:44.181Z,6.20
2018-01-12T14:40:12.442Z,6.00
2018-01-12T14:42:40.705Z,5.90
2018-01-12T14:45:08.993Z,5.90
2018-01-12T14:47:37.300Z,5.70
2018-01-12T14:50:05.553Z,5.70
2018-01-12T14:52:33.810Z,5.80
2018-01-12T14:55:10.472Z,5.80
2018-01-12T14:57:38.725Z,5.80
2018-01-12T15:00:07.022Z,6.00
2018-01-12T15:02:35.285Z,5.90
2018-01-12T15:05:03.589Z,5.90
2018-01-12T15:07:31.845Z,5.90
2018-01-12T15:10:10.199Z,5.90
2018-01-12T15:12:38.458Z,5.90
2018-01-12T15:15:06.737Z,5.90
2018-01-12T15:17:34.994Z,5.90
2018-01-12T15:20:03.278Z,5.90
2018-01-12T15:22:31.533Z,5.90
2018-01-12T15:25:00.145Z,5.90
2018-01-12T15:27:29.085Z,5.90
2018-01-12T15:29:58.166Z,6.00
2018-01-12T15:32:26.450Z,6.00
2018-01-12T15:34:54.701Z,6.00
2018-01-12T15:37:22.982Z,6.00
2018-01-12T15:39:51.234Z,6.00
2018-01-12T15:42:19.532Z,6.00
2018-01-12T15:44:47.777Z,5.90
2018-01-12T15:47:15.297Z,5.90
2018-01-12T15:49:43.564Z,6.00
2018-01-12T15:52:11.853Z,6.00
2018-01-12T15:54:47.313Z,6.00
2018-01-12T15:57:15.624Z,6.00
2018-01-12T15:59:43.881Z,6.00
2018-01-12T16:05:08.793Z,6.00
2018-01-12T16:07:37.045Z,6.00
2018-01-12T16:10:04.553Z,6.00
2018-01-12T16:12:32.858Z,6.00
2018-01-12T16:15:01.138Z,6.00
2018-01-12T16:17:30.039Z,6.00
2018-01-12T16:19:58.941Z,6.00
2018-01-12T16:22:27.196Z,5.90
2018-01-12T16:24:55.449Z,5.90
2018-01-12T16:27:23.724Z,5.90
2018-01-12T16:29:52.005Z,5.90
2018-01-12T16:32:20.269Z,6.00
2018-01-12T16:34:48.514Z,5.90
2018-01-12T16:37:16.816Z,5.90
2018-01-12T16:39:45.068Z,6.00
2018-01-12T16:42:13.364Z,6.10
2018-01-12T16:44:41.628Z,6.00
2018-01-12T16:47:09.894Z,5.90
2018-01-12T16:49:38.155Z,5.90
2018-01-12T16:52:06.450Z,5.80
2018-01-12T16:54:33.952Z,5.80
2018-01-12T16:57:11.942Z,5.90
2018-01-12T16:59:40.189Z,5.90
2018-01-12T17:02:07.700Z,5.90
2018-01-12T17:04:35.978Z,5.90
2018-01-12T17:07:04.233Z,5.90
2018-01-12T17:09:32.506Z,5.90
2018-01-12T17:12:00.867Z,5.90
2018-01-12T17:14:29.992Z,6.00
2018-01-12T17:16:58.989Z,6.00
2018-01-12T17:19:28.529Z,6.00
2018-01-12T17:21:56.775Z,6.00
2018-01-12T17:24:25.079Z,6.10
2018-01-12T17:26:53.329Z,6.10
2018-01-12T17:29:21.637Z,6.00
2018-01-12T17:32:03.858Z,6.00
2018-01-12T17:34:32.164Z,6.00
2018-01-12T17:37:00.148Z,5.90
2018-01-12T17:39:28.797Z,6.00
2018-01-12T17:41:57.100Z,6.00
2018-01-12T17:44:25.377Z,6.00
2018-01-12T17:46:53.658Z,6.00
2018-01-12T17:49:34.993Z,5.90
2018-01-12T17:52:02.526Z,6.00
2018-01-12T17:54:30.803Z,5.90
2018-01-12T17:57:00.007Z,5.90
2018-01-12T17:59:28.881Z,6.00
2018-01-12T18:01:57.169Z,6.00
2018-01-12T18:04:25.459Z,6.00
2018-01-12T18:06:53.709Z,6.10
2018-01-12T18:09:23.923Z,6.00
2018-01-12T18:11:52.269Z,6.00
2018-01-12T18:14:20.552Z,6.00
2018-01-12T18:16:48.832Z,6.10
2018-01-12T18:19:17.113Z,6.00
2018-01-12T18:21:45.376Z,6.10
2018-01-12T18:24:13.658Z,6.10
2018-01-12T18:26:58.970Z,6.00
2018-01-12T18:29:27.242Z,6.00
2018-01-12T18:31:55.528Z,5.90
2018-01-12T18:34:23.804Z,5.90
2018-01-12T18:36:53.044Z,5.90
2018-01-12T18:39:21.329Z,5.90
2018-01-12T18:41:49.617Z,5.90
2018-01-12T18:44:17.906Z,5.90
2018-01-12T18:46:46.215Z,6.00
2018-01-12T18:49:14.474Z,5.90
2018-01-12T18:51:42.769Z,6.00
2018-01-12T18:54:11.027Z,5.90
2018-01-12T18:56:39.301Z,5.90
2018-01-12T18:59:07.578Z,5.90
2018-01-12T19:01:35.880Z,5.90
2018-01-12T19:04:05.080Z,5.90
2018-01-12T19:06:33.364Z,5.90
2018-01-12T19:09:01.664Z,6.00
2018-01-12T19:11:30.061Z,6.00
2018-01-12T19:13:59.025Z,6.00
2018-01-12T19:16:28.571Z,6.00
2018-01-12T19:18:56.854Z,6.00
2018-01-12T19:21:25.101Z,6.00
2018-01-12T19:23:53.398Z,6.10
2018-01-12T19:26:21.666Z,6.00
2018-01-12T19:28:49.925Z,6.00
2018-01-12T19:31:25.316Z,6.10
2018-01-12T19:33:53.612Z,6.10
2018-01-12T19:36:21.912Z,6.10
2018-01-12T19:38:57.177Z,6.10
2018-01-12T19:41:25.454Z,6.10
2018-01-12T19:43:53.714Z,6.10
2018-01-12T19:46:22.013Z,6.00
2018-01-12T19:48:50.316Z,6.00
2018-01-12T19:51:18.565Z,6.00
2018-01-12T19:53:46.871Z,6.00
2018-01-12T19:56:15.172Z,6.00
2018-01-12T19:58:43.436Z,6.00
2018-01-12T20:01:11.726Z,6.00
2018-01-12T20:03:53.725Z,5.90
2018-01-12T20:06:21.974Z,5.90
2018-01-12T20:08:58.582Z,5.90
2018-01-12T20:11:26.866Z,5.90
2018-01-12T20:13:55.136Z,5.90
2018-01-12T20:16:23.545Z,5.90
2018-01-12T20:18:51.798Z,6.00
2018-01-12T20:21:20.047Z,6.00
2018-01-12T20:23:48.333Z,6.00
2018-01-12T20:26:20.044Z,6.00
2018-01-12T20:28:48.335Z,6.00
2018-01-12T20:31:20.263Z,6.00
2018-01-12T20:33:48.592Z,6.10
2018-01-12T20:36:16.847Z,5.90
2018-01-12T20:38:45.187Z,6.00
2018-01-12T20:41:12.678Z,5.90
2018-01-12T20:43:41.039Z,6.10
2018-01-12T20:46:09.331Z,6.10
2018-01-12T20:48:37.624Z,6.20
2018-01-12T20:51:05.924Z,6.10
2018-01-12T20:53:39.430Z,6.10
2018-01-12T20:56:15.748Z,6.10
2018-01-12T20:58:44.059Z,6.00
2018-01-12T21:01:12.550Z,6.00
2018-01-12T21:03:40.839Z,6.10
2018-01-12T21:06:09.125Z,6.10
2018-01-12T21:08:37.421Z,6.00
2018-01-12T21:11:05.717Z,6.00
2018-01-12T21:13:34.957Z,6.10
2018-01-12T21:16:03.200Z,6.20
2018-01-12T21:18:31.555Z,6.30
2018-01-12T21:21:00.117Z,6.10
2018-01-12T21:23:28.968Z,6.00
2018-01-12T21:25:57.229Z,5.90
2018-01-12T21:28:25.644Z,5.90
2018-01-12T21:30:53.928Z,5.90
2018-01-12T21:33:23.178Z,5.90
2018-01-12T21:35:51.466Z,5.90
2018-01-12T21:38:19.756Z,5.90
2018-01-12T21:41:09.202Z,5.90
2018-01-12T21:43:37.498Z,6.00
2018-01-12T21:46:05.801Z,6.00
2018-01-12T21:48:35.029Z,6.00
2018-01-12T21:51:03.294Z,6.00
2018-01-12T21:53:31.627Z,6.00
2018-01-12T21:56:00.190Z,6.00
2018-01-12T21:58:28.885Z,6.10
2018-01-12T22:00:57.149Z,6.10
2018-01-12T22:03:25.406Z,6.10
2018-01-12T22:05:53.708Z,6.10
2018-01-12T22:08:22.965Z,6.10
2018-01-12T22:10:51.249Z,6.10
2018-01-12T22:13:19.502Z,6.10
2018-01-12T22:15:47.799Z,6.10
2018-01-12T22:18:24.660Z,6.10
2018-01-12T22:20:52.904Z,6.10
2018-01-12T22:23:21.184Z,6.10
2018-01-12T22:25:49.437Z,6.10
2018-01-12T22:28:17.737Z,6.10
2018-01-12T22:30:46.037Z,6.10
2018-01-12T22:33:14.290Z,6.20
2018-01-12T22:35:42.556Z,6.20
2018-01-12T22:38:10.863Z,6.20
2018-01-12T22:40:39.120Z,6.10
2018-01-12T22:43:07.408Z,6.20
2018-01-12T22:45:35.701Z,6.20
2018-01-12T22:48:03.951Z,6.20
2018-01-12T22:50:33.267Z,6.20
2018-01-12T22:53:01.548Z,6.20
2018-01-12T22:55:30.087Z,6.20
2018-01-12T22:57:59.088Z,6.20
2018-01-12T23:00:28.161Z,6.20
2018-01-12T23:02:56.466Z,6.20
2018-01-12T23:05:24.718Z,6.20
2018-01-12T23:07:52.969Z,6.20
2018-01-12T23:10:21.294Z,6.20
2018-01-12T23:12:49.542Z,6.20
2018-01-12T23:15:17.054Z,6.20
2018-01-12T23:17:45.304Z,6.20
2018-01-12T23:20:13.627Z,6.20
2018-01-12T23:22:41.918Z,6.20
2018-01-12T23:25:23.216Z,6.20
2018-01-12T23:27:51.464Z,6.20
2018-01-12T23:30:19.709Z,6.20
2018-01-12T23:32:48.004Z,6.20
2018-01-12T23:35:16.253Z,6.20
2018-01-12T23:37:44.533Z,6.20
2018-01-12T23:40:12.833Z,6.20
2018-01-12T23:42:41.089Z,6.20
2018-01-12T23:45:09.416Z,6.20
2018-01-12T23:47:37.716Z,6.20
2018-01-12T23:50:06.929Z,6.20
2018-01-12T23:52:35.186Z,6.20
2018-01-12T23:55:03.498Z,6.20
2018-01-12T23:57:31.748Z,6.20
